sensor_id;sensor_type;location;lat;lon;timestamp;pressure;altitude;pressure_sealevel;temperature
9119;BMP180;4594;50.994;7.126;2023-04-25T00:01:17;100040.00;;;10.60
9119;BMP180;4594;50.994;7.126;2023-04-25T00:03:44;100028.00;;;10.60
9119;BMP180;4594;50.994;7.126;2023-04-25T00:06:11;100031.00;;;10.60
9119;BMP180;4594;50.994;7.126;2023-04-25T00:08:37;100046.00;;;10.50
9119;BMP180;4594;50.994;7.126;2023-04-25T00:11:03;100043.00;;;10.50
9119;BMP180;4594;50.994;7.126;2023-04-25T00:13:29;100041.00;;;10.50
9119;BMP180;4594;50.994;7.126;2023-04-25T00:15:55;100048.00;;;10.40
9119;BMP180;4594;50.994;7.126;2023-04-25T00:18:22;100058.00;;;10.40
9119;BMP180;4594;50.994;7.126;2023-04-25T00:20:48;100024.00;;;10.30
9119;BMP180;4594;50.994;7.126;2023-04-25T00:23:16;100032.00;;;10.30
9119;BMP180;4594;50.994;7.126;2023-04-25T00:25:45;100017.00;;;10.30
9119;BMP180;4594;50.994;7.126;2023-04-25T00:28:12;100037.00;;;10.20
9119;BMP180;4594;50.994;7.126;2023-04-25T00:30:39;100033.00;;;10.20
9119;BMP180;4594;50.994;7.126;2023-04-25T00:33:05;100052.00;;;10.10
9119;BMP180;4594;50.994;7.126;2023-04-25T00:35:31;100031.00;;;10.10
9119;BMP180;4594;50.994;7.126;2023-04-25T00:37:57;100044.00;;;10.10
9119;BMP180;4594;50.994;7.126;2023-04-25T00:40:22;100037.00;;;10.00
9119;BMP180;4594;50.994;7.126;2023-04-25T00:42:51;100055.00;;;10.00
9119;BMP180;4594;50.994;7.126;2023-04-25T00:45:18;100036.00;;;9.90
9119;BMP180;4594;50.994;7.126;2023-04-25T00:47:44;100049.00;;;9.80
9119;BMP180;4594;50.994;7.126;2023-04-25T00:50:11;100049.00;;;9.90
9119;BMP180;4594;50.994;7.126;2023-04-25T00:52:44;100034.00;;;9.80
9119;BMP180;4594;50.994;7.126;2023-04-25T00:55:11;100046.00;;;9.80
9119;BMP180;4594;50.994;7.126;2023-04-25T00:57:38;100045.00;;;9.80
9119;BMP180;4594;50.994;7.126;2023-04-25T01:00:11;100049.00;;;9.70
9119;BMP180;4594;50.994;7.126;2023-04-25T01:02:40;100028.00;;;9.70
9119;BMP180;4594;50.994;7.126;2023-04-25T01:05:08;100028.00;;;9.60
9119;BMP180;4594;50.994;7.126;2023-04-25T01:07:34;100039.00;;;9.60
9119;BMP180;4594;50.994;7.126;2023-04-25T01:10:01;100022.00;;;9.60
9119;BMP180;4594;50.994;7.126;2023-04-25T01:12:26;100027.00;;;9.60
9119;BMP180;4594;50.994;7.126;2023-04-25T01:14:52;100035.00;;;9.60
9119;BMP180;4594;50.994;7.126;2023-04-25T01:17:19;100021.00;;;9.60
9119;BMP180;4594;50.994;7.126;2023-04-25T01:19:45;100043.00;;;9.60
9119;BMP180;4594;50.994;7.126;2023-04-25T01:22:14;100028.00;;;9.70
9119;BMP180;4594;50.994;7.126;2023-04-25T01:24:41;100038.00;;;9.80
9119;BMP180;4594;50.994;7.126;2023-04-25T01:27:07;100034.00;;;9.80
9119;BMP180;4594;50.994;7.126;2023-04-25T01:29:35;100048.00;;;9.80
9119;BMP180;4594;50.994;7.126;2023-04-25T01:32:01;100056.00;;;9.90
9119;BMP180;4594;50.994;7.126;2023-04-25T01:34:27;100031.00;;;10.00
9119;BMP180;4594;50.994;7.126;2023-04-25T01:36:53;100052.00;;;10.00
9119;BMP180;4594;50.994;7.126;2023-04-25T01:39:20;100047.00;;;10.00
9119;BMP180;4594;50.994;7.126;2023-04-25T01:41:47;100047.00;;;10.10
9119;BMP180;4594;50.994;7.126;2023-04-25T01:44:14;100057.00;;;10.10
9119;BMP180;4594;50.994;7.126;2023-04-25T01:46:40;100050.00;;;10.20
9119;BMP180;4594;50.994;7.126;2023-04-25T01:49:06;100041.00;;;10.20
9119;BMP180;4594;50.994;7.126;2023-04-25T01:51:32;100057.00;;;10.20
9119;BMP180;4594;50.994;7.126;2023-04-25T01:53:58;100050.00;;;10.30
9119;BMP180;4594;50.994;7.126;2023-04-25T01:56:25;100038.00;;;10.30
9119;BMP180;4594;50.994;7.126;2023-04-25T01:58:51;100065.00;;;10.30
9119;BMP180;4594;50.994;7.126;2023-04-25T02:01:17;100049.00;;;10.30
9119;BMP180;4594;50.994;7.126;2023-04-25T02:03:43;100048.00;;;10.30
9119;BMP180;4594;50.994;7.126;2023-04-25T02:06:09;100059.00;;;10.40
9119;BMP180;4594;50.994;7.126;2023-04-25T02:08:34;100067.00;;;10.40
9119;BMP180;4594;50.994;7.126;2023-04-25T02:11:02;100068.00;;;10.40
9119;BMP180;4594;50.994;7.126;2023-04-25T02:13:28;100073.00;;;10.40
9119;BMP180;4594;50.994;7.126;2023-04-25T02:15:54;100053.00;;;10.40
9119;BMP180;4594;50.994;7.126;2023-04-25T02:18:20;100045.00;;;10.40
9119;BMP180;4594;50.994;7.126;2023-04-25T02:20:47;100070.00;;;10.40
9119;BMP180;4594;50.994;7.126;2023-04-25T02:23:12;100053.00;;;10.40
9119;BMP180;4594;50.994;7.126;2023-04-25T02:25:38;100043.00;;;10.40
9119;BMP180;4594;50.994;7.126;2023-04-25T02:28:04;100053.00;;;10.30
9119;BMP180;4594;50.994;7.126;2023-04-25T02:30:30;100063.00;;;10.30
9119;BMP180;4594;50.994;7.126;2023-04-25T02:32:55;100070.00;;;10.30
9119;BMP180;4594;50.994;7.126;2023-04-25T02:35:22;100051.00;;;10.20
9119;BMP180;4594;50.994;7.126;2023-04-25T02:37:47;100051.00;;;10.20
9119;BMP180;4594;50.994;7.126;2023-04-25T02:40:13;100065.00;;;10.20
9119;BMP180;4594;50.994;7.126;2023-04-25T02:42:39;100069.00;;;10.20
9119;BMP180;4594;50.994;7.126;2023-04-25T02:45:05;100059.00;;;10.20
9119;BMP180;4594;50.994;7.126;2023-04-25T02:47:31;100080.00;;;10.20
9119;BMP180;4594;50.994;7.126;2023-04-25T02:49:56;100057.00;;;10.30
9119;BMP180;4594;50.994;7.126;2023-04-25T02:52:22;100054.00;;;10.30
9119;BMP180;4594;50.994;7.126;2023-04-25T02:54:48;100043.00;;;10.30
9119;BMP180;4594;50.994;7.126;2023-04-25T02:57:13;100061.00;;;10.30
9119;BMP180;4594;50.994;7.126;2023-04-25T02:59:39;100048.00;;;10.30
9119;BMP180;4594;50.994;7.126;2023-04-25T03:02:05;100056.00;;;10.30
9119;BMP180;4594;50.994;7.126;2023-04-25T03:04:30;100049.00;;;10.40
9119;BMP180;4594;50.994;7.126;2023-04-25T03:06:57;100053.00;;;10.40
9119;BMP180;4594;50.994;7.126;2023-04-25T03:09:22;100069.00;;;10.40
9119;BMP180;4594;50.994;7.126;2023-04-25T03:11:48;100061.00;;;10.50
9119;BMP180;4594;50.994;7.126;2023-04-25T03:14:14;100050.00;;;10.60
9119;BMP180;4594;50.994;7.126;2023-04-25T03:16:40;100027.00;;;10.60
9119;BMP180;4594;50.994;7.126;2023-04-25T03:19:06;100063.00;;;10.70
9119;BMP180;4594;50.994;7.126;2023-04-25T03:21:33;100047.00;;;10.70
9119;BMP180;4594;50.994;7.126;2023-04-25T03:24:02;100069.00;;;10.70
9119;BMP180;4594;50.994;7.126;2023-04-25T03:26:29;100052.00;;;10.80
9119;BMP180;4594;50.994;7.126;2023-04-25T03:28:54;100040.00;;;10.80
9119;BMP180;4594;50.994;7.126;2023-04-25T03:31:20;100068.00;;;10.90
9119;BMP180;4594;50.994;7.126;2023-04-25T03:33:46;100064.00;;;10.90
9119;BMP180;4594;50.994;7.126;2023-04-25T03:36:12;100064.00;;;11.00
9119;BMP180;4594;50.994;7.126;2023-04-25T03:38:37;100074.00;;;11.00
9119;BMP180;4594;50.994;7.126;2023-04-25T03:41:03;100059.00;;;11.00
9119;BMP180;4594;50.994;7.126;2023-04-25T03:43:29;100057.00;;;11.00
9119;BMP180;4594;50.994;7.126;2023-04-25T03:45:54;100082.00;;;11.00
9119;BMP180;4594;50.994;7.126;2023-04-25T03:48:20;100083.00;;;11.10
9119;BMP180;4594;50.994;7.126;2023-04-25T03:50:52;100073.00;;;11.10
9119;BMP180;4594;50.994;7.126;2023-04-25T03:53:17;100050.00;;;11.10
9119;BMP180;4594;50.994;7.126;2023-04-25T03:55:43;100073.00;;;11.10
9119;BMP180;4594;50.994;7.126;2023-04-25T03:58:08;100065.00;;;11.10
9119;BMP180;4594;50.994;7.126;2023-04-25T04:00:35;100084.00;;;11.10
9119;BMP180;4594;50.994;7.126;2023-04-25T04:03:01;100074.00;;;11.10
9119;BMP180;4594;50.994;7.126;2023-04-25T04:05:27;100053.00;;;11.20
9119;BMP180;4594;50.994;7.126;2023-04-25T04:07:54;100074.00;;;11.20
9119;BMP180;4594;50.994;7.126;2023-04-25T04:10:21;100065.00;;;11.20
9119;BMP180;4594;50.994;7.126;2023-04-25T04:12:47;100081.00;;;11.20
9119;BMP180;4594;50.994;7.126;2023-04-25T04:15:13;100066.00;;;11.30
9119;BMP180;4594;50.994;7.126;2023-04-25T04:17:39;100094.00;;;11.30
9119;BMP180;4594;50.994;7.126;2023-04-25T04:20:05;100081.00;;;11.30
9119;BMP180;4594;50.994;7.126;2023-04-25T04:22:32;100086.00;;;11.40
9119;BMP180;4594;50.994;7.126;2023-04-25T04:24:57;100080.00;;;11.40
9119;BMP180;4594;50.994;7.126;2023-04-25T04:27:23;100069.00;;;11.40
9119;BMP180;4594;50.994;7.126;2023-04-25T04:29:49;100082.00;;;11.50
9119;BMP180;4594;50.994;7.126;2023-04-25T04:32:17;100107.00;;;11.50
9119;BMP180;4594;50.994;7.126;2023-04-25T04:34:43;100102.00;;;11.60
9119;BMP180;4594;50.994;7.126;2023-04-25T04:37:10;100089.00;;;11.70
9119;BMP180;4594;50.994;7.126;2023-04-25T04:39:36;100107.00;;;11.60
9119;BMP180;4594;50.994;7.126;2023-04-25T04:42:02;100097.00;;;11.80
9119;BMP180;4594;50.994;7.126;2023-04-25T04:44:29;100101.00;;;11.80
9119;BMP180;4594;50.994;7.126;2023-04-25T04:46:58;100114.00;;;11.90
9119;BMP180;4594;50.994;7.126;2023-04-25T04:49:24;100101.00;;;12.00
9119;BMP180;4594;50.994;7.126;2023-04-25T04:51:50;100121.00;;;12.00
9119;BMP180;4594;50.994;7.126;2023-04-25T04:54:16;100108.00;;;12.10
9119;BMP180;4594;50.994;7.126;2023-04-25T04:56:41;100114.00;;;12.10
9119;BMP180;4594;50.994;7.126;2023-04-25T04:59:07;100114.00;;;12.20
9119;BMP180;4594;50.994;7.126;2023-04-25T05:01:33;100129.00;;;12.20
9119;BMP180;4594;50.994;7.126;2023-04-25T05:04:01;100128.00;;;12.30
9119;BMP180;4594;50.994;7.126;2023-04-25T05:06:28;100144.00;;;12.40
9119;BMP180;4594;50.994;7.126;2023-04-25T05:08:56;100152.00;;;12.40
9119;BMP180;4594;50.994;7.126;2023-04-25T05:11:23;100137.00;;;12.50
9119;BMP180;4594;50.994;7.126;2023-04-25T05:13:51;100148.00;;;12.60
9119;BMP180;4594;50.994;7.126;2023-04-25T05:16:17;100129.00;;;12.60
9119;BMP180;4594;50.994;7.126;2023-04-25T05:18:43;100164.00;;;12.70
9119;BMP180;4594;50.994;7.126;2023-04-25T05:21:08;100147.00;;;12.70
9119;BMP180;4594;50.994;7.126;2023-04-25T05:23:34;100154.00;;;12.80
9119;BMP180;4594;50.994;7.126;2023-04-25T05:26:00;100153.00;;;12.90
9119;BMP180;4594;50.994;7.126;2023-04-25T05:28:26;100162.00;;;13.00
9119;BMP180;4594;50.994;7.126;2023-04-25T05:30:51;100153.00;;;13.10
9119;BMP180;4594;50.994;7.126;2023-04-25T05:33:18;100167.00;;;13.10
9119;BMP180;4594;50.994;7.126;2023-04-25T05:35:44;100162.00;;;13.20
9119;BMP180;4594;50.994;7.126;2023-04-25T05:38:10;100181.00;;;13.30
9119;BMP180;4594;50.994;7.126;2023-04-25T05:40:36;100161.00;;;13.30
9119;BMP180;4594;50.994;7.126;2023-04-25T05:43:02;100163.00;;;13.40
9119;BMP180;4594;50.994;7.126;2023-04-25T05:45:28;100180.00;;;13.50
9119;BMP180;4594;50.994;7.126;2023-04-25T05:47:53;100177.00;;;13.50
9119;BMP180;4594;50.994;7.126;2023-04-25T05:50:19;100188.00;;;13.50
9119;BMP180;4594;50.994;7.126;2023-04-25T05:52:44;100176.00;;;13.60
9119;BMP180;4594;50.994;7.126;2023-04-25T05:55:10;100193.00;;;13.70
9119;BMP180;4594;50.994;7.126;2023-04-25T05:57:36;100203.00;;;13.80
9119;BMP180;4594;50.994;7.126;2023-04-25T06:00:02;100180.00;;;13.90
9119;BMP180;4594;50.994;7.126;2023-04-25T06:02:29;100173.00;;;14.00
9119;BMP180;4594;50.994;7.126;2023-04-25T06:04:55;100187.00;;;14.20
9119;BMP180;4594;50.994;7.126;2023-04-25T06:07:20;100186.00;;;14.30
9119;BMP180;4594;50.994;7.126;2023-04-25T06:09:46;100211.00;;;14.50
9119;BMP180;4594;50.994;7.126;2023-04-25T06:12:12;100217.00;;;14.60
9119;BMP180;4594;50.994;7.126;2023-04-25T06:14:38;100199.00;;;14.70
9119;BMP180;4594;50.994;7.126;2023-04-25T06:17:04;100216.00;;;14.90
9119;BMP180;4594;50.994;7.126;2023-04-25T06:19:35;100228.00;;;15.10
9119;BMP180;4594;50.994;7.126;2023-04-25T06:22:01;100226.00;;;15.20
9119;BMP180;4594;50.994;7.126;2023-04-25T06:24:27;100234.00;;;15.30
9119;BMP180;4594;50.994;7.126;2023-04-25T06:26:54;100224.00;;;15.50
9119;BMP180;4594;50.994;7.126;2023-04-25T06:29:20;100224.00;;;15.80
9119;BMP180;4594;50.994;7.126;2023-04-25T06:31:46;100211.00;;;16.20
9119;BMP180;4594;50.994;7.126;2023-04-25T06:34:12;100217.00;;;16.70
9119;BMP180;4594;50.994;7.126;2023-04-25T06:36:37;100206.00;;;17.10
9119;BMP180;4594;50.994;7.126;2023-04-25T06:39:03;100213.00;;;17.30
9119;BMP180;4594;50.994;7.126;2023-04-25T06:41:29;100218.00;;;17.50
9119;BMP180;4594;50.994;7.126;2023-04-25T06:43:54;100221.00;;;17.70
9119;BMP180;4594;50.994;7.126;2023-04-25T06:46:20;100224.00;;;17.80
9119;BMP180;4594;50.994;7.126;2023-04-25T06:48:46;100217.00;;;18.10
9119;BMP180;4594;50.994;7.126;2023-04-25T06:51:11;100212.00;;;18.20
9119;BMP180;4594;50.994;7.126;2023-04-25T06:53:39;100208.00;;;18.40
9119;BMP180;4594;50.994;7.126;2023-04-25T06:56:05;100226.00;;;18.60
9119;BMP180;4594;50.994;7.126;2023-04-25T06:58:31;100234.00;;;18.70
9119;BMP180;4594;50.994;7.126;2023-04-25T07:00:57;100224.00;;;18.80
9119;BMP180;4594;50.994;7.126;2023-04-25T07:03:23;100229.00;;;18.80
9119;BMP180;4594;50.994;7.126;2023-04-25T07:05:50;100240.00;;;18.90
9119;BMP180;4594;50.994;7.126;2023-04-25T07:08:16;100245.00;;;19.00
9119;BMP180;4594;50.994;7.126;2023-04-25T07:10:42;100250.00;;;19.10
9119;BMP180;4594;50.994;7.126;2023-04-25T07:13:08;100246.00;;;19.20
9119;BMP180;4594;50.994;7.126;2023-04-25T07:15:33;100245.00;;;19.30
9119;BMP180;4594;50.994;7.126;2023-04-25T07:17:59;100238.00;;;19.30
9119;BMP180;4594;50.994;7.126;2023-04-25T07:20:25;100244.00;;;19.40
9119;BMP180;4594;50.994;7.126;2023-04-25T07:22:53;100244.00;;;19.60
9119;BMP180;4594;50.994;7.126;2023-04-25T07:25:19;100259.00;;;19.70
9119;BMP180;4594;50.994;7.126;2023-04-25T07:27:45;100269.00;;;19.80
9119;BMP180;4594;50.994;7.126;2023-04-25T07:30:11;100274.00;;;19.90
9119;BMP180;4594;50.994;7.126;2023-04-25T07:32:38;100268.00;;;19.90
9119;BMP180;4594;50.994;7.126;2023-04-25T07:35:05;100267.00;;;20.00
9119;BMP180;4594;50.994;7.126;2023-04-25T07:37:33;100270.00;;;20.20
9119;BMP180;4594;50.994;7.126;2023-04-25T07:39:59;100270.00;;;20.30
9119;BMP180;4594;50.994;7.126;2023-04-25T07:42:25;100269.00;;;20.30
9119;BMP180;4594;50.994;7.126;2023-04-25T07:44:50;100283.00;;;20.20
9119;BMP180;4594;50.994;7.126;2023-04-25T07:47:17;100275.00;;;20.10
9119;BMP180;4594;50.994;7.126;2023-04-25T07:49:44;100279.00;;;19.90
9119;BMP180;4594;50.994;7.126;2023-04-25T07:52:11;100287.00;;;19.70
9119;BMP180;4594;50.994;7.126;2023-04-25T07:54:36;100291.00;;;19.50
9119;BMP180;4594;50.994;7.126;2023-04-25T07:57:02;100274.00;;;19.40
9119;BMP180;4594;50.994;7.126;2023-04-25T07:59:28;100276.00;;;19.30
9119;BMP180;4594;50.994;7.126;2023-04-25T08:01:54;100287.00;;;19.40
9119;BMP180;4594;50.994;7.126;2023-04-25T08:04:19;100286.00;;;19.60
9119;BMP180;4594;50.994;7.126;2023-04-25T08:06:46;100285.00;;;19.80
9119;BMP180;4594;50.994;7.126;2023-04-25T08:09:11;100291.00;;;20.30
9119;BMP180;4594;50.994;7.126;2023-04-25T08:11:37;100301.00;;;20.80
9119;BMP180;4594;50.994;7.126;2023-04-25T08:14:03;100305.00;;;21.20
9119;BMP180;4594;50.994;7.126;2023-04-25T08:16:29;100306.00;;;21.90
9119;BMP180;4594;50.994;7.126;2023-04-25T08:18:55;100310.00;;;22.50
9119;BMP180;4594;50.994;7.126;2023-04-25T08:21:21;100307.00;;;23.10
9119;BMP180;4594;50.994;7.126;2023-04-25T08:23:46;100318.00;;;23.40
9119;BMP180;4594;50.994;7.126;2023-04-25T08:26:12;100319.00;;;23.40
9119;BMP180;4594;50.994;7.126;2023-04-25T08:28:38;100332.00;;;23.30
9119;BMP180;4594;50.994;7.126;2023-04-25T08:31:04;100336.00;;;23.10
9119;BMP180;4594;50.994;7.126;2023-04-25T08:33:30;100348.00;;;22.80
9119;BMP180;4594;50.994;7.126;2023-04-25T08:35:55;100352.00;;;22.60
9119;BMP180;4594;50.994;7.126;2023-04-25T08:38:21;100353.00;;;22.30
9119;BMP180;4594;50.994;7.126;2023-04-25T08:40:50;100359.00;;;22.00
9119;BMP180;4594;50.994;7.126;2023-04-25T08:43:19;100355.00;;;21.60
9119;BMP180;4594;50.994;7.126;2023-04-25T08:45:46;100360.00;;;21.30
9119;BMP180;4594;50.994;7.126;2023-04-25T08:48:15;100374.00;;;21.00
9119;BMP180;4594;50.994;7.126;2023-04-25T08:50:49;100375.00;;;20.80
9119;BMP180;4594;50.994;7.126;2023-04-25T08:53:17;100373.00;;;20.50
9119;BMP180;4594;50.994;7.126;2023-04-25T08:55:46;100385.00;;;20.20
9119;BMP180;4594;50.994;7.126;2023-04-25T08:58:12;100382.00;;;20.10
9119;BMP180;4594;50.994;7.126;2023-04-25T09:00:39;100381.00;;;19.90
9119;BMP180;4594;50.994;7.126;2023-04-25T09:03:05;100389.00;;;19.70
9119;BMP180;4594;50.994;7.126;2023-04-25T09:05:33;100383.00;;;19.60
9119;BMP180;4594;50.994;7.126;2023-04-25T09:07:58;100388.00;;;19.50
9119;BMP180;4594;50.994;7.126;2023-04-25T09:10:26;100403.00;;;19.40
9119;BMP180;4594;50.994;7.126;2023-04-25T09:18:12;100397.00;;;19.10
9119;BMP180;4594;50.994;7.126;2023-04-25T09:20:42;100391.00;;;19.50
9119;BMP180;4594;50.994;7.126;2023-04-25T09:23:08;100399.00;;;20.10
9119;BMP180;4594;50.994;7.126;2023-04-25T09:25:35;100397.00;;;21.00
9119;BMP180;4594;50.994;7.126;2023-04-25T09:28:06;100393.00;;;21.80
9119;BMP180;4594;50.994;7.126;2023-04-25T09:30:34;100420.00;;;22.10
9119;BMP180;4594;50.994;7.126;2023-04-25T09:33:09;100425.00;;;22.20
9119;BMP180;4594;50.994;7.126;2023-04-25T09:35:42;100419.00;;;22.20
9119;BMP180;4594;50.994;7.126;2023-04-25T09:38:13;100420.00;;;22.00
9119;BMP180;4594;50.994;7.126;2023-04-25T09:40:41;100441.00;;;21.70
9119;BMP180;4594;50.994;7.126;2023-04-25T09:43:21;100432.00;;;21.40
9119;BMP180;4594;50.994;7.126;2023-04-25T09:45:48;100438.00;;;21.20
9119;BMP180;4594;50.994;7.126;2023-04-25T09:48:18;100439.00;;;21.00
9119;BMP180;4594;50.994;7.126;2023-04-25T09:50:52;100444.00;;;20.90
9119;BMP180;4594;50.994;7.126;2023-04-25T09:53:29;100419.00;;;20.80
9119;BMP180;4594;50.994;7.126;2023-04-25T09:55:56;100428.00;;;21.60
9119;BMP180;4594;50.994;7.126;2023-04-25T09:58:24;100406.00;;;22.90
9119;BMP180;4594;50.994;7.126;2023-04-25T10:00:51;100421.00;;;24.10
9119;BMP180;4594;50.994;7.126;2023-04-25T10:03:19;100431.00;;;24.10
9119;BMP180;4594;50.994;7.126;2023-04-25T10:05:48;100430.00;;;23.90
9119;BMP180;4594;50.994;7.126;2023-04-25T10:08:15;100441.00;;;23.50
9119;BMP180;4594;50.994;7.126;2023-04-25T10:10:43;100446.00;;;23.20
9119;BMP180;4594;50.994;7.126;2023-04-25T10:13:09;100433.00;;;22.80
9119;BMP180;4594;50.994;7.126;2023-04-25T10:15:35;100459.00;;;22.50
9119;BMP180;4594;50.994;7.126;2023-04-25T10:18:04;100447.00;;;22.30
9119;BMP180;4594;50.994;7.126;2023-04-25T10:20:32;100450.00;;;22.10
9119;BMP180;4594;50.994;7.126;2023-04-25T10:23:11;100455.00;;;21.90
9119;BMP180;4594;50.994;7.126;2023-04-25T10:25:39;100466.00;;;21.70
9119;BMP180;4594;50.994;7.126;2023-04-25T10:28:05;100448.00;;;21.60
9119;BMP180;4594;50.994;7.126;2023-04-25T10:30:31;100434.00;;;21.80
9119;BMP180;4594;50.994;7.126;2023-04-25T10:32:59;100428.00;;;23.10
9119;BMP180;4594;50.994;7.126;2023-04-25T10:35:28;100436.00;;;24.80
9119;BMP180;4594;50.994;7.126;2023-04-25T10:38:10;100425.00;;;26.90
9119;BMP180;4594;50.994;7.126;2023-04-25T10:40:36;100469.00;;;27.90
9119;BMP180;4594;50.994;7.126;2023-04-25T10:45:59;100469.00;;;26.90
9119;BMP180;4594;50.994;7.126;2023-04-25T10:48:30;100486.00;;;26.30
9119;BMP180;4594;50.994;7.126;2023-04-25T10:51:09;100470.00;;;25.60
9119;BMP180;4594;50.994;7.126;2023-04-25T10:53:35;100489.00;;;25.00
9119;BMP180;4594;50.994;7.126;2023-04-25T10:56:30;100495.00;;;24.40
9119;BMP180;4594;50.994;7.126;2023-04-25T10:59:17;100498.00;;;23.90
9119;BMP180;4594;50.994;7.126;2023-04-25T11:01:51;100486.00;;;23.40
9119;BMP180;4594;50.994;7.126;2023-04-25T11:04:31;100481.00;;;22.90
9119;BMP180;4594;50.994;7.126;2023-04-25T11:07:26;100482.00;;;22.50
9119;BMP180;4594;50.994;7.126;2023-04-25T11:09:54;100479.00;;;22.20
9119;BMP180;4594;50.994;7.126;2023-04-25T11:12:20;100486.00;;;22.00
9119;BMP180;4594;50.994;7.126;2023-04-25T11:14:45;100487.00;;;21.80
9119;BMP180;4594;50.994;7.126;2023-04-25T11:17:11;100478.00;;;21.90
9119;BMP180;4594;50.994;7.126;2023-04-25T11:19:37;100465.00;;;21.90
9119;BMP180;4594;50.994;7.126;2023-04-25T11:22:03;100474.00;;;22.00
9119;BMP180;4594;50.994;7.126;2023-04-25T11:24:31;100482.00;;;22.10
9119;BMP180;4594;50.994;7.126;2023-04-25T11:26:59;100477.00;;;22.50
9119;BMP180;4594;50.994;7.126;2023-04-25T11:29:28;100454.00;;;22.60
9119;BMP180;4594;50.994;7.126;2023-04-25T11:31:55;100462.00;;;22.70
9119;BMP180;4594;50.994;7.126;2023-04-25T11:34:24;100464.00;;;22.70
9119;BMP180;4594;50.994;7.126;2023-04-25T11:36:53;100482.00;;;22.50
9119;BMP180;4594;50.994;7.126;2023-04-25T11:39:21;100472.00;;;22.30
9119;BMP180;4594;50.994;7.126;2023-04-25T11:41:47;100483.00;;;22.30
9119;BMP180;4594;50.994;7.126;2023-04-25T11:44:16;100481.00;;;22.30
9119;BMP180;4594;50.994;7.126;2023-04-25T11:46:43;100492.00;;;22.30
9119;BMP180;4594;50.994;7.126;2023-04-25T11:49:09;100482.00;;;22.30
9119;BMP180;4594;50.994;7.126;2023-04-25T11:51:43;100473.00;;;22.20
9119;BMP180;4594;50.994;7.126;2023-04-25T11:54:10;100480.00;;;22.00
9119;BMP180;4594;50.994;7.126;2023-04-25T11:56:37;100468.00;;;21.90
9119;BMP180;4594;50.994;7.126;2023-04-25T11:59:05;100490.00;;;21.70
9119;BMP180;4594;50.994;7.126;2023-04-25T12:01:37;100480.00;;;21.60
9119;BMP180;4594;50.994;7.126;2023-04-25T12:04:23;100481.00;;;21.50
9119;BMP180;4594;50.994;7.126;2023-04-25T12:06:52;100496.00;;;21.50
9119;BMP180;4594;50.994;7.126;2023-04-25T12:09:32;100486.00;;;21.30
9119;BMP180;4594;50.994;7.126;2023-04-25T12:12:00;100472.00;;;21.20
9119;BMP180;4594;50.994;7.126;2023-04-25T12:14:32;100495.00;;;21.00
9119;BMP180;4594;50.994;7.126;2023-04-25T12:17:01;100496.00;;;20.80
9119;BMP180;4594;50.994;7.126;2023-04-25T12:19:36;100481.00;;;20.60
9119;BMP180;4594;50.994;7.126;2023-04-25T12:22:23;100486.00;;;20.50
9119;BMP180;4594;50.994;7.126;2023-04-25T12:24:49;100498.00;;;20.50
9119;BMP180;4594;50.994;7.126;2023-04-25T12:27:16;100492.00;;;20.40
9119;BMP180;4594;50.994;7.126;2023-04-25T12:29:55;100496.00;;;20.40
9119;BMP180;4594;50.994;7.126;2023-04-25T12:32:22;100497.00;;;20.40
9119;BMP180;4594;50.994;7.126;2023-04-25T12:34:47;100492.00;;;20.50
9119;BMP180;4594;50.994;7.126;2023-04-25T12:37:13;100498.00;;;20.50
9119;BMP180;4594;50.994;7.126;2023-04-25T12:39:39;100479.00;;;20.60
9119;BMP180;4594;50.994;7.126;2023-04-25T12:42:05;100497.00;;;20.60
9119;BMP180;4594;50.994;7.126;2023-04-25T12:44:33;100504.00;;;20.60
9119;BMP180;4594;50.994;7.126;2023-04-25T12:46:59;100511.00;;;20.70
9119;BMP180;4594;50.994;7.126;2023-04-25T12:49:25;100502.00;;;20.70
9119;BMP180;4594;50.994;7.126;2023-04-25T12:51:51;100509.00;;;20.80
9119;BMP180;4594;50.994;7.126;2023-04-25T12:54:17;100500.00;;;20.90
9119;BMP180;4594;50.994;7.126;2023-04-25T12:56:43;100511.00;;;20.90
9119;BMP180;4594;50.994;7.126;2023-04-25T12:59:09;100520.00;;;21.00
9119;BMP180;4594;50.994;7.126;2023-04-25T13:01:36;100516.00;;;21.00
9119;BMP180;4594;50.994;7.126;2023-04-25T13:04:01;100516.00;;;21.00
9119;BMP180;4594;50.994;7.126;2023-04-25T13:06:27;100533.00;;;21.00
9119;BMP180;4594;50.994;7.126;2023-04-25T13:08:53;100530.00;;;20.90
9119;BMP180;4594;50.994;7.126;2023-04-25T13:11:19;100532.00;;;20.90
9119;BMP180;4594;50.994;7.126;2023-04-25T13:13:45;100541.00;;;20.80
9119;BMP180;4594;50.994;7.126;2023-04-25T13:16:11;100550.00;;;20.80
9119;BMP180;4594;50.994;7.126;2023-04-25T13:18:39;100543.00;;;20.70
9119;BMP180;4594;50.994;7.126;2023-04-25T13:21:05;100538.00;;;20.60
9119;BMP180;4594;50.994;7.126;2023-04-25T13:23:31;100551.00;;;20.60
9119;BMP180;4594;50.994;7.126;2023-04-25T13:25:57;100553.00;;;20.50
9119;BMP180;4594;50.994;7.126;2023-04-25T13:28:24;100559.00;;;20.50
9119;BMP180;4594;50.994;7.126;2023-04-25T13:30:50;100550.00;;;20.50
9119;BMP180;4594;50.994;7.126;2023-04-25T13:33:17;100542.00;;;20.50
9119;BMP180;4594;50.994;7.126;2023-04-25T13:35:43;100568.00;;;20.40
9119;BMP180;4594;50.994;7.126;2023-04-25T13:38:12;100552.00;;;20.40
9119;BMP180;4594;50.994;7.126;2023-04-25T13:40:39;100559.00;;;20.30
9119;BMP180;4594;50.994;7.126;2023-04-25T13:43:05;100570.00;;;20.20
9119;BMP180;4594;50.994;7.126;2023-04-25T13:45:32;100554.00;;;20.00
9119;BMP180;4594;50.994;7.126;2023-04-25T13:47:57;100560.00;;;19.80
9119;BMP180;4594;50.994;7.126;2023-04-25T13:50:23;100552.00;;;19.60
9119;BMP180;4594;50.994;7.126;2023-04-25T13:52:49;100567.00;;;19.40
9119;BMP180;4594;50.994;7.126;2023-04-25T13:55:14;100556.00;;;19.30
9119;BMP180;4594;50.994;7.126;2023-04-25T13:57:40;100560.00;;;19.10
9119;BMP180;4594;50.994;7.126;2023-04-25T14:00:07;100559.00;;;19.00
9119;BMP180;4594;50.994;7.126;2023-04-25T14:02:35;100560.00;;;18.90
9119;BMP180;4594;50.994;7.126;2023-04-25T14:05:03;100552.00;;;18.70
9119;BMP180;4594;50.994;7.126;2023-04-25T14:07:29;100564.00;;;18.60
9119;BMP180;4594;50.994;7.126;2023-04-25T14:09:55;100546.00;;;18.50
9119;BMP180;4594;50.994;7.126;2023-04-25T14:12:23;100540.00;;;18.40
9119;BMP180;4594;50.994;7.126;2023-04-25T14:14:49;100558.00;;;18.40
9119;BMP180;4594;50.994;7.126;2023-04-25T14:17:14;100544.00;;;18.50
9119;BMP180;4594;50.994;7.126;2023-04-25T14:19:40;100531.00;;;18.50
9119;BMP180;4594;50.994;7.126;2023-04-25T14:22:11;100550.00;;;18.60
9119;BMP180;4594;50.994;7.126;2023-04-25T14:24:37;100547.00;;;18.70
9119;BMP180;4594;50.994;7.126;2023-04-25T14:27:03;100555.00;;;18.70
9119;BMP180;4594;50.994;7.126;2023-04-25T14:29:29;100554.00;;;18.80